Time;durP1;ratioP1;P1;durP2;ratioP2;P2;SDS_P1;SDS_P2;PMS_P1;PMS_P2;Temp;Humidity;BMP_temperature;BMP_pressure;BME280_temperature;BME280_humidity;BME280_pressure;Samples;Min_cycle;Max_cycle;Signal;HPM_P1;HPM_P2
2021/04/09 00:00:55;;;;;;;10.38;7.43;;;2.60;67.20;;;;;;5026668;28;20489;-70
2021/04/09 00:03:20;;;;;;;12.65;8.02;;;2.70;64.60;;;;;;4994760;28;20521;-72
2021/04/09 00:05:46;;;;;;;10.55;6.95;;;2.70;53.50;;;;;;5013456;28;20517;-70
2021/04/09 00:08:12;;;;;;;9.82;7.60;;;2.60;48.60;;;;;;5012921;28;20049;-70
2021/04/09 00:10:39;;;;;;;12.40;7.00;;;2.70;41.60;;;;;;5013121;28;20072;-71
2021/04/09 00:13:07;;;;;;;10.38;7.30;;;2.70;34.40;;;;;;5012883;28;20057;-71
2021/04/09 00:15:32;;;;;;;8.00;7.20;;;2.60;40.40;;;;;;5004983;28;20021;-72
2021/04/09 00:17:58;;;;;;;9.93;7.50;;;2.60;42.50;;;;;;5013467;28;20083;-71
2021/04/09 00:20:26;;;;;;;11.77;7.47;;;2.60;43.20;;;;;;5010844;28;20076;-71
2021/04/09 00:22:52;;;;;;;10.52;7.45;;;2.50;52.80;;;;;;5007436;28;20052;-71
2021/04/09 00:25:20;;;;;;;14.02;7.93;;;2.40;90.00;;;;;;5012547;28;20037;-70
2021/04/09 00:27:45;;;;;;;11.20;7.55;;;2.40;96.60;;;;;;5005375;28;20026;-70
2021/04/09 00:30:17;;;;;;;12.50;7.30;;;2.30;99.90;;;;;;5012172;28;20026;-71
2021/04/09 00:32:44;;;;;;;11.32;7.22;;;2.30;99.90;;;;;;5007766;28;20034;-71
2021/04/09 00:35:11;;;;;;;12.80;7.78;;;2.30;99.90;;;;;;5012862;28;20513;-71
2021/04/09 00:37:37;;;;;;;12.10;7.85;;;2.30;99.90;;;;;;5012317;28;20076;-71
2021/04/09 00:40:04;;;;;;;11.65;8.07;;;2.20;99.90;;;;;;4987344;28;20488;-71
2021/04/09 00:42:30;;;;;;;11.23;7.47;;;2.20;99.90;;;;;;5012892;28;20062;-70
2021/04/09 00:44:57;;;;;;;12.75;8.30;;;2.20;99.90;;;;;;5012713;28;20065;-71
2021/04/09 00:47:24;;;;;;;12.85;8.43;;;2.20;99.90;;;;;;5003411;28;20026;-70
2021/04/09 00:49:50;;;;;;;13.30;7.18;;;2.20;99.90;;;;;;4988339;28;20026;-69
2021/04/09 00:52:16;;;;;;;10.73;6.93;;;2.30;99.90;;;;;;5012443;28;20034;-69
2021/04/09 00:54:42;;;;;;;9.75;7.78;;;2.30;99.90;;;;;;5007912;28;20041;-69
2021/04/09 00:57:08;;;;;;;12.73;8.05;;;2.20;99.90;;;;;;5012938;28;20026;-70
2021/04/09 00:59:35;;;;;;;8.63;7.50;;;2.10;99.90;;;;;;5007160;28;20021;-71
2021/04/09 01:02:01;;;;;;;12.77;7.03;;;2.10;99.90;;;;;;4997846;28;20199;-71
2021/04/09 01:04:27;;;;;;;10.55;6.85;;;2.10;99.90;;;;;;5013794;28;20026;-70
2021/04/09 01:06:53;;;;;;;12.10;6.63;;;2.00;99.90;;;;;;5013183;28;20366;-72
2021/04/09 01:09:19;;;;;;;11.63;7.43;;;2.00;99.90;;;;;;4993777;28;20030;-70
2021/04/09 01:11:45;;;;;;;11.25;8.27;;;2.00;99.90;;;;;;5005484;28;20076;-70
2021/04/09 01:14:11;;;;;;;8.70;7.80;;;2.00;99.90;;;;;;5013364;28;20018;-70
2021/04/09 01:16:45;;;;;;;9.18;7.38;;;1.90;99.90;;;;;;5016165;28;20029;-71
2021/04/09 01:19:44;;;;;;;13.82;9.15;;;1.80;99.90;;;;;;5016125;28;20026;-70
2021/04/09 01:22:12;;;;;;;12.20;7.90;;;1.90;99.90;;;;;;5012777;28;20429;-69
2021/04/09 01:24:41;;;;;;;13.77;8.77;;;1.90;99.90;;;;;;5015606;28;20022;-70
2021/04/09 01:27:18;;;;;;;10.85;8.32;;;1.80;99.90;;;;;;5007852;28;20025;-70
2021/04/09 01:30:12;;;;;;;12.13;7.90;;;1.80;99.90;;;;;;5015765;28;20093;-71
2021/04/09 01:32:38;;;;;;;14.60;7.93;;;1.80;99.90;;;;;;5015220;28;20065;-70
2021/04/09 01:35:08;;;;;;;10.35;8.05;;;1.80;99.90;;;;;;5015229;28;20022;-70
2021/04/09 01:37:41;;;;;;;9.27;7.38;;;1.90;99.90;;;;;;5003476;28;20520;-71
2021/04/09 01:40:17;;;;;;;11.32;8.10;;;1.90;99.90;;;;;;5008793;28;20103;-70
2021/04/09 01:42:45;;;;;;;9.55;8.05;;;1.80;99.90;;;;;;4996379;28;20019;-71
2021/04/09 01:45:12;;;;;;;9.23;7.18;;;1.80;99.90;;;;;;5013980;28;20041;-70
2021/04/09 01:47:41;;;;;;;13.05;7.53;;;1.80;99.90;;;;;;5007015;28;20490;-71
2021/04/09 01:50:12;;;;;;;9.63;7.47;;;1.80;99.90;;;;;;4996587;28;20085;-72
2021/04/09 01:52:39;;;;;;;12.05;7.95;;;1.80;99.90;;;;;;5007238;28;20022;-71
2021/04/09 01:55:08;;;;;;;14.75;7.65;;;1.80;99.90;;;;;;5015079;28;20092;-71
2021/04/09 01:57:34;;;;;;;12.05;8.50;;;1.80;99.90;;;;;;5008027;28;20014;-70
2021/04/09 02:00:01;;;;;;;15.25;7.53;;;1.80;99.90;;;;;;5018023;28;20033;-71
2021/04/09 02:02:28;;;;;;;14.50;8.15;;;1.70;99.90;;;;;;5037088;28;20048;-70
2021/04/09 02:04:55;;;;;;;11.68;8.43;;;1.70;99.90;;;;;;5009709;28;20022;-71
2021/04/09 02:07:21;;;;;;;13.27;8.18;;;1.70;99.90;;;;;;5006545;28;20148;-70
2021/04/09 02:09:49;;;;;;;9.50;7.82;;;1.70;99.90;;;;;;5014991;28;20105;-70
2021/04/09 02:12:16;;;;;;;13.98;8.70;;;1.70;99.90;;;;;;5007157;28;20026;-71
2021/04/09 02:14:42;;;;;;;12.38;7.95;;;1.70;99.90;;;;;;5015245;28;20053;-69
2021/04/09 02:17:09;;;;;;;11.50;7.90;;;1.70;99.90;;;;;;5015079;28;20030;-71
2021/04/09 02:19:37;;;;;;;17.75;8.20;;;1.70;99.90;;;;;;4995531;28;20022;-70
2021/04/09 02:22:02;;;;;;;11.70;9.23;;;1.70;99.90;;;;;;5004957;28;20030;-70
2021/04/09 02:24:28;;;;;;;16.30;8.65;;;1.80;99.90;;;;;;4996186;28;20397;-70
2021/04/09 02:26:54;;;;;;;12.93;8.10;;;1.70;99.90;;;;;;4989455;28;20030;-70
2021/04/09 02:29:21;;;;;;;13.52;8.68;;;1.70;99.90;;;;;;5014058;28;20437;-70
2021/04/09 02:31:48;;;;;;;12.27;7.47;;;1.60;99.90;;;;;;5007966;28;20037;-71
2021/04/09 02:34:14;;;;;;;13.55;8.35;;;1.60;99.90;;;;;;5006416;28;20105;-70
2021/04/09 02:36:42;;;;;;;17.73;8.40;;;1.50;99.90;;;;;;5009483;28;20053;-70
2021/04/09 02:39:11;;;;;;;10.85;8.55;;;1.50;99.90;;;;;;5013596;28;20033;-70
2021/04/09 02:41:41;;;;;;;17.77;10.07;;;1.50;99.90;;;;;;5002694;28;20025;-70
2021/04/09 02:44:08;;;;;;;20.02;9.52;;;1.50;99.90;;;;;;5001272;28;20044;-71
2021/04/09 02:46:48;;;;;;;14.43;8.80;;;1.50;99.90;;;;;;5023149;28;20448;-69
2021/04/09 02:49:29;;;;;;;24.42;10.20;;;1.50;99.90;;;;;;5016207;28;20021;-70
2021/04/09 02:51:56;;;;;;;13.65;9.05;;;1.50;99.90;;;;;;5023278;28;20116;-70
2021/04/09 02:54:23;;;;;;;12.50;8.30;;;1.60;99.90;;;;;;4997251;23;20135;-74
2021/04/09 02:56:51;;;;;;;20.50;10.00;;;1.50;99.90;;;;;;4973689;28;20019;-74
2021/04/09 02:59:18;;;;;;;14.20;9.95;;;1.50;99.90;;;;;;4967865;28;20027;-73
2021/04/09 03:01:45;;;;;;;17.25;9.68;;;1.40;99.90;;;;;;4973722;28;20027;-73
2021/04/09 03:04:11;;;;;;;15.88;9.90;;;1.40;99.90;;;;;;4981792;28;20113;-73
2021/04/09 03:06:37;;;;;;;14.52;9.13;;;1.40;99.90;;;;;;4981284;28;20110;-73
2021/04/09 03:09:06;;;;;;;17.77;10.50;;;1.60;99.90;;;;;;4983490;28;20077;-73
2021/04/09 03:11:35;;;;;;;12.70;9.73;;;1.70;99.90;;;;;;4982859;28;20459;-73
2021/04/09 03:14:02;;;;;;;16.13;10.48;;;1.50;99.90;;;;;;4985500;28;20152;-73
2021/04/09 03:16:42;;;;;;;13.65;9.55;;;1.50;99.90;;;;;;4976370;28;20058;-73
2021/04/09 03:19:09;;;;;;;19.45;9.48;;;1.40;99.90;;;;;;4994888;28;20027;-72
2021/04/09 03:21:35;;;;;;;18.88;10.05;;;1.40;99.90;;;;;;5003937;28;20034;-72
2021/04/09 03:24:00;;;;;;;16.38;10.23;;;1.30;99.90;;;;;;4986506;28;20129;-72
2021/04/09 03:26:26;;;;;;;19.60;10.30;;;1.50;99.90;;;;;;4984619;28;20089;-73
2021/04/09 03:28:51;;;;;;;15.85;9.98;;;1.40;99.90;;;;;;4967950;28;20053;-73
2021/04/09 03:31:17;;;;;;;14.15;9.85;;;1.30;99.90;;;;;;4984312;28;20031;-73
2021/04/09 03:33:42;;;;;;;24.83;11.63;;;1.30;99.90;;;;;;4982094;28;20031;-73
2021/04/09 03:36:08;;;;;;;21.00;10.70;;;1.30;99.90;;;;;;4989590;28;20462;-73
2021/04/09 03:38:33;;;;;;;14.13;8.95;;;1.30;99.90;;;;;;4989753;28;20026;-73
2021/04/09 03:40:59;;;;;;;18.67;10.25;;;1.30;99.90;;;;;;4984911;28;20064;-72
2021/04/09 03:43:25;;;;;;;14.05;9.00;;;1.30;99.90;;;;;;4990837;28;20030;-72
2021/04/09 03:45:50;;;;;;;18.13;9.50;;;1.30;99.90;;;;;;4984864;28;20057;-72
2021/04/09 03:48:16;;;;;;;15.73;10.18;;;1.30;99.90;;;;;;4975567;28;20512;-75
2021/04/09 03:50:41;;;;;;;14.93;9.77;;;1.20;99.90;;;;;;4981969;28;20034;-72
2021/04/09 03:53:07;;;;;;;15.93;10.45;;;1.20;99.90;;;;;;4989271;28;20497;-73
2021/04/09 03:55:33;;;;;;;17.42;10.27;;;1.20;99.90;;;;;;4971997;28;20034;-74
2021/04/09 03:57:58;;;;;;;16.45;9.50;;;1.20;99.90;;;;;;4981491;28;20102;-73
2021/04/09 04:00:24;;;;;;;16.42;9.30;;;1.20;99.90;;;;;;4984712;28;20101;-72
2021/04/09 04:02:51;;;;;;;15.43;9.48;;;1.20;99.90;;;;;;4991338;28;20045;-72
2021/04/09 04:05:17;;;;;;;15.48;9.40;;;1.20;99.90;;;;;;4982220;28;20069;-73
2021/04/09 04:07:43;;;;;;;14.05;10.07;;;1.30;99.90;;;;;;4987362;28;20054;-72
2021/04/09 04:10:10;;;;;;;14.75;9.75;;;1.20;99.90;;;;;;4981573;28;20038;-72
2021/04/09 04:12:35;;;;;;;12.85;9.38;;;1.20;99.90;;;;;;4979747;28;20027;-72
2021/04/09 04:15:01;;;;;;;18.63;9.98;;;1.20;99.90;;;;;;4985958;28;20033;-74
2021/04/09 04:17:26;;;;;;;15.43;10.15;;;1.20;99.90;;;;;;4983149;28;20076;-72
2021/04/09 04:19:52;;;;;;;13.95;10.38;;;1.20;99.90;;;;;;4987283;28;20402;-75
2021/04/09 04:22:18;;;;;;;17.23;9.93;;;1.20;99.90;;;;;;4986685;28;20062;-73
2021/04/09 04:24:43;;;;;;;16.40;11.88;;;1.20;99.90;;;;;;4984848;28;20037;-72
2021/04/09 04:27:09;;;;;;;19.63;9.82;;;1.20;99.90;;;;;;4982947;28;20271;-73
2021/04/09 04:29:34;;;;;;;21.05;10.55;;;1.20;99.90;;;;;;4984868;28;20069;-74
2021/04/09 04:32:01;;;;;;;20.05;10.35;;;1.20;99.90;;;;;;4989149;28;20078;-73
2021/04/09 04:34:26;;;;;;;22.70;10.75;;;1.10;99.90;;;;;;4984391;28;20101;-74
2021/04/09 04:36:52;;;;;;;13.05;9.23;;;1.10;99.90;;;;;;4966396;28;20444;-73
2021/04/09 04:39:18;;;;;;;19.52;10.95;;;1.10;99.90;;;;;;4993710;28;20185;-74
2021/04/09 04:41:44;;;;;;;18.10;10.00;;;1.10;99.90;;;;;;4990213;28;20031;-71
2021/04/09 04:44:10;;;;;;;13.80;10.20;;;1.10;99.90;;;;;;5004969;28;20049;-71
2021/04/09 04:46:37;;;;;;;22.55;11.18;;;1.10;99.90;;;;;;5005968;28;20077;-71
2021/04/09 04:49:02;;;;;;;16.63;8.82;;;1.10;99.90;;;;;;5004431;28;20129;-73
2021/04/09 04:51:28;;;;;;;19.60;10.20;;;1.10;99.90;;;;;;5001342;28;20019;-72
2021/04/09 04:53:54;;;;;;;22.15;10.80;;;1.20;99.90;;;;;;5010377;28;20099;-72
2021/04/09 04:56:19;;;;;;;14.80;9.25;;;1.20;99.90;;;;;;4992495;28;20038;-72
2021/04/09 04:58:45;;;;;;;17.85;9.50;;;1.30;99.90;;;;;;4985574;28;20460;-73
2021/04/09 05:01:10;;;;;;;17.63;9.68;;;1.40;99.90;;;;;;4986278;28;20030;-73
2021/04/09 05:03:36;;;;;;;20.60;10.73;;;1.50;99.90;;;;;;4995402;28;20037;-73
2021/04/09 05:06:02;;;;;;;15.85;9.27;;;1.60;99.90;;;;;;4986546;28;20061;-73
2021/04/09 05:08:27;;;;;;;21.80;9.25;;;1.60;99.90;;;;;;4994153;28;20410;-74
2021/04/09 05:10:53;;;;;;;27.52;9.80;;;1.70;99.90;;;;;;4989818;28;20068;-71
2021/04/09 05:13:18;;;;;;;17.13;9.55;;;1.70;99.90;;;;;;4984182;28;20039;-72
2021/04/09 05:15:44;;;;;;;21.70;8.63;;;1.80;99.90;;;;;;4986887;28;20030;-73
2021/04/09 05:18:10;;;;;;;25.60;11.27;;;1.90;99.90;;;;;;4988538;28;20085;-72
2021/04/09 05:20:35;;;;;;;20.08;9.75;;;2.20;99.90;;;;;;4986324;28;20022;-72
2021/04/09 05:23:01;;;;;;;13.60;8.18;;;2.60;98.80;;;;;;4991806;28;20030;-75
2021/04/09 05:25:27;;;;;;;18.02;9.23;;;2.90;5.70;;;;;;4995977;28;20101;-73
2021/04/09 05:27:52;;;;;;;14.95;8.82;;;2.90;5.90;;;;;;4989576;28;20406;-73
2021/04/09 05:30:19;;;;;;;21.38;9.38;;;3.10;1.00;;;;;;4990073;28;20034;-73
2021/04/09 05:32:44;;;;;;;18.33;10.73;;;3.30;1.00;;;;;;4984514;28;20034;-73
2021/04/09 05:35:10;;;;;;;17.88;8.82;;;3.50;1.00;;;;;;4985888;28;20027;-73
2021/04/09 05:37:36;;;;;;;15.20;8.48;;;3.90;99.90;;;;;;4981526;28;20026;-74
2021/04/09 05:40:02;;;;;;;13.38;7.13;;;4.00;99.90;;;;;;4985644;28;20114;-72
2021/04/09 05:42:28;;;;;;;17.73;7.93;;;4.30;99.90;;;;;;4986016;28;20026;-73
2021/04/09 05:44:54;;;;;;;12.68;6.90;;;4.30;31.80;;;;;;4981879;28;20034;-73
2021/04/09 05:47:19;;;;;;;13.32;7.15;;;4.70;1.00;;;;;;4990677;28;20080;-73
2021/04/09 05:49:45;;;;;;;12.45;7.95;;;5.00;62.80;;;;;;4974704;28;20035;-73
2021/04/09 05:52:10;;;;;;;10.00;6.97;;;5.20;99.90;;;;;;4991315;28;20038;-73
2021/04/09 05:54:37;;;;;;;10.43;7.50;;;5.10;99.90;;;;;;4979425;28;20026;-72
2021/04/09 05:57:03;;;;;;;16.02;7.63;;;4.90;1.00;;;;;;4987763;28;20487;-73
2021/04/09 05:59:29;;;;;;;13.98;6.55;;;5.20;99.90;;;;;;4986411;28;20045;-73
2021/04/09 06:01:55;;;;;;;11.80;6.53;;;5.30;1.00;;;;;;4999788;28;20031;-74
2021/04/09 06:04:21;;;;;;;10.73;6.43;;;5.30;99.90;;;;;;4990963;28;20025;-74
2021/04/09 06:06:47;;;;;;;9.35;7.88;;;5.20;99.90;;;;;;4979866;28;20038;-73
2021/04/09 06:09:12;;;;;;;10.15;7.32;;;4.80;99.90;;;;;;4980244;28;20034;-72
2021/04/09 06:11:38;;;;;;;13.95;7.38;;;4.80;99.90;;;;;;4980674;28;20042;-72
2021/04/09 06:14:03;;;;;;;12.82;7.43;;;4.80;1.00;;;;;;4984761;28;20559;-73
2021/04/09 06:16:29;;;;;;;16.50;8.00;;;5.00;99.90;;;;;;4986839;28;20018;-73
2021/04/09 06:18:55;;;;;;;15.50;7.95;;;5.00;99.90;;;;;;4984560;28;20022;-73
2021/04/09 06:21:20;;;;;;;15.55;7.55;;;5.10;99.90;;;;;;4988999;28;20089;-73
2021/04/09 06:23:46;;;;;;;11.82;7.50;;;5.20;39.90;;;;;;4986360;28;20034;-73
2021/04/09 06:26:11;;;;;;;8.52;6.88;;;4.90;53.30;;;;;;4983908;28;20089;-74
2021/04/09 06:28:37;;;;;;;15.10;7.72;;;4.70;99.90;;;;;;4985593;28;20039;-74
2021/04/09 06:31:03;;;;;;;10.63;7.38;;;4.90;99.90;;;;;;4987129;28;20030;-73
2021/04/09 06:33:28;;;;;;;11.60;7.05;;;4.70;99.90;;;;;;4991578;28;20757;-73
2021/04/09 06:35:54;;;;;;;11.90;7.45;;;4.60;1.00;;;;;;4982283;28;20026;-74
2021/04/09 06:38:19;;;;;;;15.10;8.10;;;4.70;99.90;;;;;;4982844;28;20105;-74
2021/04/09 06:40:46;;;;;;;13.10;7.82;;;4.80;99.90;;;;;;4982266;28;20494;-74
2021/04/09 06:43:11;;;;;;;9.85;7.47;;;4.90;99.90;;;;;;4983897;28;20070;-74
2021/04/09 06:45:39;;;;;;;11.13;7.47;;;5.10;99.90;;;;;;4987399;28;20057;-74
2021/04/09 06:48:06;;;;;;;13.55;6.78;;;5.40;1.00;;;;;;4971905;28;20030;-74
2021/04/09 06:50:32;;;;;;;13.25;8.98;;;5.50;99.90;;;;;;4984215;28;20031;-73
2021/04/09 06:52:57;;;;;;;11.35;7.30;;;5.50;42.30;;;;;;4983306;28;20390;-72
2021/04/09 06:55:24;;;;;;;17.05;8.10;;;5.60;49.80;;;;;;4984779;28;20411;-72
2021/04/09 06:57:52;;;;;;;9.35;7.90;;;5.70;99.90;;;;;;4988074;28;20035;-73
2021/04/09 07:00:21;;;;;;;14.57;8.23;;;5.90;99.90;;;;;;4990263;28;20037;-72
2021/04/09 07:02:46;;;;;;;9.35;7.70;;;5.90;1.00;;;;;;4987544;28;20038;-73
2021/04/09 07:05:13;;;;;;;12.15;7.45;;;6.20;1.00;;;;;;4985993;28;20034;-74
2021/04/09 07:07:39;;;;;;;18.08;8.68;;;6.50;1.00;;;;;;4985099;28;20054;-74
2021/04/09 07:10:06;;;;;;;22.20;7.60;;;6.40;99.90;;;;;;4983087;28;20050;-74
2021/04/09 07:12:33;;;;;;;17.00;9.77;;;6.30;99.90;;;;;;4985738;28;20038;-74
2021/04/09 07:15:09;;;;;;;11.85;7.45;;;6.30;1.00;;;;;;4982201;28;20046;-76
2021/04/09 07:17:44;;;;;;;15.80;8.30;;;6.60;1.00;;;;;;4982756;28;20034;-75
2021/04/09 07:20:24;;;;;;;15.27;7.70;;;7.20;60.30;;;;;;4989497;28;20030;-76
2021/04/09 07:22:52;;;;;;;20.37;7.40;;;7.50;18.10;;;;;;4971891;28;20042;-76
2021/04/09 07:25:20;;;;;;;18.20;8.70;;;7.50;1.00;;;;;;4989495;28;20295;-75
2021/04/09 07:27:47;;;;;;;13.50;7.85;;;7.40;45.70;;;;;;4987483;28;20057;-75
2021/04/09 07:30:25;;;;;;;17.42;9.52;;;7.70;1.00;;;;;;4997292;28;20026;-76
2021/04/09 07:32:51;;;;;;;12.02;8.13;;;7.90;99.90;;;;;;5005598;28;20022;-75
2021/04/09 07:35:18;;;;;;;19.98;10.25;;;8.00;99.90;;;;;;5008548;28;20053;-75
2021/04/09 07:37:55;;;;;;;10.45;8.23;;;8.00;34.60;;;;;;4988921;28;20465;-76
2021/04/09 07:40:30;;;;;;;12.82;7.90;;;8.10;1.00;;;;;;4990141;28;20022;-75
2021/04/09 07:42:57;;;;;;;10.55;7.43;;;8.20;1.00;;;;;;4985158;28;20395;-76
2021/04/09 07:45:24;;;;;;;9.15;7.53;;;8.30;99.90;;;;;;4996374;28;20035;-76
2021/04/09 07:47:57;;;;;;;13.50;7.95;;;8.50;99.90;;;;;;4998053;28;20054;-76
2021/04/09 07:50:41;;;;;;;11.25;8.63;;;8.60;19.80;;;;;;4989558;28;20026;-76
2021/04/09 07:53:15;;;;;;;11.60;8.10;;;8.90;1.00;;;;;;4988514;28;20161;-76
2021/04/09 07:55:41;;;;;;;11.55;6.82;;;9.00;99.90;;;;;;4994188;28;20343;-75
2021/04/09 07:58:24;;;;;;;8.82;7.53;;;8.90;99.90;;;;;;4978099;28;20102;-76
2021/04/09 08:00:51;;;;;;;8.50;6.90;;;9.10;99.90;;;;;;4986485;28;20030;-75
2021/04/09 08:03:36;;;;;;;12.93;7.47;;;9.30;99.90;;;;;;4989538;28;20397;-76
2021/04/09 08:06:09;;;;;;;12.60;7.45;;;9.40;99.90;;;;;;4993441;28;20026;-75
2021/04/09 08:08:35;;;;;;;15.43;8.13;;;9.60;99.90;;;;;;4973375;28;20023;-74
2021/04/09 08:11:23;;;;;;;20.27;8.52;;;9.80;99.20;;;;;;4985587;28;20030;-76
2021/04/09 08:14:10;;;;;;;9.73;8.73;;;9.90;51.20;;;;;;4979525;28;20546;-75
2021/04/09 08:16:41;;;;;;;15.77;8.77;;;10.00;21.80;;;;;;4996840;28;20053;-74
2021/04/09 08:19:14;;;;;;;12.05;8.05;;;10.00;16.10;;;;;;5000413;28;20014;-75
2021/04/09 08:21:42;;;;;;;13.00;7.70;;;10.10;1.00;;;;;;4985801;28;20162;-75
2021/04/09 08:24:10;;;;;;;13.95;8.35;;;10.30;1.00;;;;;;4981287;28;20026;-76
2021/04/09 08:26:39;;;;;;;14.73;8.32;;;10.40;1.00;;;;;;4995353;28;20062;-75
2021/04/09 08:29:08;;;;;;;11.98;8.15;;;10.60;1.00;;;;;;4982908;28;20046;-74
2021/04/09 08:31:35;;;;;;;12.63;8.27;;;10.60;1.00;;;;;;5000808;28;20054;-75
2021/04/09 08:34:01;;;;;;;16.13;7.63;;;10.80;1.00;;;;;;4988584;28;20040;-75
2021/04/09 08:36:28;;;;;;;20.27;7.55;;;11.10;1.00;;;;;;5000319;28;20026;-75
2021/04/09 08:38:54;;;;;;;16.88;9.68;;;11.20;1.00;;;;;;4991040;28;20062;-75
2021/04/09 08:41:20;;;;;;;10.13;6.72;;;11.20;1.00;;;;;;4995236;28;20037;-75
2021/04/09 08:43:47;;;;;;;14.38;6.20;;;11.20;99.90;;;;;;5006672;28;20067;-74
2021/04/09 08:46:12;;;;;;;16.52;6.25;;;11.50;99.90;;;;;;4993160;28;20034;-76
2021/04/09 08:48:39;;;;;;;13.73;7.40;;;11.60;99.90;;;;;;4989329;28;20117;-75
2021/04/09 08:51:07;;;;;;;18.85;4.68;;;11.40;99.90;;;;;;4986524;28;20018;-75
2021/04/09 08:53:33;;;;;;;8.40;4.63;;;11.50;99.90;;;;;;4996011;28;20069;-76
2021/04/09 08:55:58;;;;;;;6.63;3.65;;;11.70;99.90;;;;;;5017180;23;20054;-74
2021/04/09 08:58:24;;;;;;;6.00;4.80;;;12.00;99.90;;;;;;4993011;28;20101;-73
2021/04/09 09:00:52;;;;;;;7.25;4.43;;;12.20;99.90;;;;;;4989135;28;20023;-72
2021/04/09 09:03:29;;;;;;;3.72;3.33;;;12.10;99.90;;;;;;4994761;28;20050;-74
2021/04/09 09:06:02;;;;;;;6.38;3.85;;;12.10;86.90;;;;;;4995428;28;20389;-74
2021/04/09 09:08:50;;;;;;;5.43;3.15;;;12.10;64.10;;;;;;4988040;28;20029;-75
2021/04/09 09:11:49;;;;;;;6.07;3.35;;;12.20;66.00;;;;;;5014841;28;20022;-72
2021/04/09 09:14:35;;;;;;;7.03;3.33;;;12.20;44.60;;;;;;5002011;28;20039;-74
2021/04/09 09:17:22;;;;;;;6.88;3.97;;;12.20;42.70;;;;;;5014887;28;20033;-74
2021/04/09 09:19:49;;;;;;;10.55;3.85;;;12.30;41.00;;;;;;4996833;28;20072;-73
2021/04/09 09:22:20;;;;;;;6.57;3.58;;;12.50;36.10;;;;;;4980965;28;20068;-73
2021/04/09 09:25:06;;;;;;;5.25;2.67;;;12.60;30.00;;;;;;5014143;28;20026;-73
2021/04/09 09:27:49;;;;;;;7.15;2.83;;;12.60;27.70;;;;;;5006201;28;20037;-76
2021/04/09 09:30:36;;;;;;;7.90;3.20;;;12.60;26.30;;;;;;5006511;28;20029;-74
2021/04/09 09:33:22;;;;;;;5.93;3.00;;;12.80;24.00;;;;;;5014547;28;20042;-75
2021/04/09 09:35:58;;;;;;;4.05;3.22;;;13.00;24.00;;;;;;4997260;28;20079;-74
2021/04/09 09:38:55;;;;;;;4.65;2.75;;;13.10;24.60;;;;;;5019816;28;20037;-72
2021/04/09 09:41:33;;;;;;;8.48;2.90;;;13.40;12.40;;;;;;4992007;28;20117;-72
2021/04/09 09:44:00;;;;;;;3.70;2.35;;;13.40;9.30;;;;;;4995492;28;20061;-73
2021/04/09 09:46:50;;;;;;;5.90;2.20;;;13.30;5.10;;;;;;5018228;28;20030;-73
2021/04/09 09:49:16;;;;;;;7.10;2.40;;;13.40;1.90;;;;;;5000501;28;20077;-73
2021/04/09 09:51:42;;;;;;;6.15;3.10;;;13.50;1.00;;;;;;5019420;28;20026;-73
2021/04/09 09:54:08;;;;;;;2.90;2.20;;;13.40;1.00;;;;;;5021185;28;20026;-74
2021/04/09 09:56:33;;;;;;;3.97;2.45;;;13.30;1.00;;;;;;4998057;28;20033;-72
2021/04/09 09:58:59;;;;;;;7.38;2.42;;;13.50;1.00;;;;;;4987185;28;20027;-74
2021/04/09 10:01:26;;;;;;;4.65;2.40;;;13.40;1.00;;;;;;4992843;28;20501;-74
2021/04/09 10:03:52;;;;;;;2.55;2.28;;;13.50;1.00;;;;;;5006693;28;20514;-75
2021/04/09 10:06:26;;;;;;;6.53;2.58;;;13.60;1.00;;;;;;5004421;28;20026;-73
2021/04/09 10:08:51;;;;;;;2.03;1.67;;;13.80;1.00;;;;;;5001905;28;20054;-74
2021/04/09 10:11:19;;;;;;;6.90;2.80;;;14.00;1.00;;;;;;4984563;28;20057;-74
2021/04/09 10:13:46;;;;;;;7.45;2.20;;;14.20;1.00;;;;;;5001952;28;20086;-74
2021/04/09 10:16:20;;;;;;;3.53;2.08;;;14.30;1.00;;;;;;4985391;28;20027;-73
2021/04/09 10:18:52;;;;;;;3.10;2.08;;;14.60;1.00;;;;;;5006965;28;20026;-73
2021/04/09 10:21:30;;;;;;;4.63;2.38;;;14.50;1.00;;;;;;5014302;28;20482;-73
2021/04/09 10:24:05;;;;;;;3.80;2.28;;;14.60;1.00;;;;;;5003864;28;20068;-73
2021/04/09 10:26:32;;;;;;;5.85;2.65;;;14.80;1.00;;;;;;5021169;28;20026;-73
2021/04/09 10:28:57;;;;;;;2.38;2.03;;;14.80;1.00;;;;;;5020620;28;20029;-73
2021/04/09 10:31:24;;;;;;;3.33;2.53;;;14.80;1.00;;;;;;5019561;28;20080;-76
2021/04/09 10:33:52;;;;;;;3.13;2.83;;;15.10;1.00;;;;;;5014655;28;20032;-73
2021/04/09 10:36:26;;;;;;;3.25;1.92;;;15.00;1.00;;;;;;4989361;28;20026;-74
2021/04/09 10:38:57;;;;;;;2.25;1.85;;;15.00;1.00;;;;;;5000295;28;20125;-73
2021/04/09 10:41:34;;;;;;;3.58;2.38;;;14.90;1.00;;;;;;5010044;28;20030;-73
2021/04/09 10:44:04;;;;;;;5.30;2.10;;;14.90;1.00;;;;;;5001423;28;20019;-72
2021/04/09 10:46:32;;;;;;;2.63;1.70;;;15.00;1.00;;;;;;4982356;28;20027;-73
2021/04/09 10:49:03;;;;;;;3.03;2.38;;;14.90;1.00;;;;;;4979624;28;20380;-74
2021/04/09 10:51:30;;;;;;;5.38;2.95;;;15.10;1.00;;;;;;5018099;28;20037;-72
2021/04/09 10:53:56;;;;;;;3.05;1.90;;;15.00;1.00;;;;;;5019846;28;20275;-72
2021/04/09 10:56:22;;;;;;;3.67;2.10;;;15.10;1.00;;;;;;5001802;28;20034;-73
2021/04/09 10:58:48;;;;;;;5.10;2.30;;;15.00;1.00;;;;;;4995306;28;20050;-74
2021/04/09 11:01:15;;;;;;;5.78;2.55;;;14.90;1.00;;;;;;4980028;28;20038;-73
2021/04/09 11:03:40;;;;;;;3.58;2.35;;;14.80;1.00;;;;;;4998248;28;20042;-73
2021/04/09 11:06:07;;;;;;;3.45;2.40;;;15.00;1.00;;;;;;5000363;28;20022;-74
2021/04/09 11:08:40;;;;;;;3.08;2.30;;;14.90;1.00;;;;;;5000662;28;20466;-72
2021/04/09 11:11:10;;;;;;;2.47;2.10;;;15.00;1.00;;;;;;5000494;28;20343;-73
2021/04/09 11:13:38;;;;;;;3.47;1.90;;;14.90;1.00;;;;;;4975734;28;20030;-72
2021/04/09 11:16:06;;;;;;;7.43;2.40;;;14.90;1.00;;;;;;5010268;28;20134;-75
2021/04/09 11:18:53;;;;;;;6.07;2.55;;;15.00;1.00;;;;;;5008821;28;20033;-72
2021/04/09 11:21:56;;;;;;;4.00;2.83;;;15.00;1.00;;;;;;5017884;28;20061;-72
2021/04/09 11:24:30;;;;;;;4.47;2.10;;;14.80;1.00;;;;;;4994933;28;20174;-75
2021/04/09 11:26:57;;;;;;;4.72;2.83;;;14.90;1.00;;;;;;5012860;28;20033;-74
2021/04/09 11:29:33;;;;;;;4.90;2.20;;;15.10;1.00;;;;;;4990898;28;20342;-72
2021/04/09 11:32:17;;;;;;;2.30;2.05;;;15.20;1.00;;;;;;5019584;28;20022;-73
2021/04/09 11:34:47;;;;;;;3.90;1.92;;;15.20;1.00;;;;;;5025889;28;20053;-71
2021/04/09 11:37:15;;;;;;;5.82;2.60;;;15.30;1.00;;;;;;5026048;28;20233;-74
2021/04/09 11:39:57;;;;;;;8.10;2.45;;;15.50;1.00;;;;;;5024635;28;20120;-75
2021/04/09 11:42:33;;;;;;;5.25;2.25;;;15.50;1.00;;;;;;5008146;28;20080;-74
2021/04/09 11:45:04;;;;;;;3.97;1.88;;;15.50;1.00;;;;;;5008132;28;20030;-75
2021/04/09 11:47:39;;;;;;;9.40;2.08;;;15.70;1.00;;;;;;5004626;28;20026;-74
2021/04/09 11:50:12;;;;;;;4.03;3.13;;;15.80;1.00;;;;;;5002323;28;20021;-73
2021/04/09 11:52:53;;;;;;;3.38;2.35;;;15.80;1.00;;;;;;5003989;28;20026;-72
2021/04/09 11:55:22;;;;;;;3.60;2.55;;;15.70;1.00;;;;;;5005364;28;20030;-72
2021/04/09 11:57:48;;;;;;;8.80;2.35;;;15.70;1.00;;;;;;5008283;28;20038;-72
2021/04/09 12:00:26;;;;;;;8.00;2.40;;;15.80;1.00;;;;;;4984096;28;20418;-73
2021/04/09 12:02:53;;;;;;;3.33;2.13;;;16.00;1.00;;;;;;5005658;28;20023;-73
2021/04/09 12:05:24;;;;;;;2.42;1.58;;;16.10;1.00;;;;;;5006171;28;20042;-73
2021/04/09 12:07:49;;;;;;;2.55;2.03;;;16.30;1.00;;;;;;4991250;28;20051;-72
2021/04/09 12:10:16;;;;;;;4.63;1.92;;;16.50;1.00;;;;;;5021222;28;20030;-73
2021/04/09 12:12:43;;;;;;;2.58;1.90;;;16.60;1.00;;;;;;5024718;28;20018;-74
2021/04/09 12:15:10;;;;;;;3.33;1.80;;;16.80;1.00;;;;;;5012083;28;20049;-73
2021/04/09 12:17:35;;;;;;;4.22;1.65;;;17.00;1.00;;;;;;5017851;28;20018;-73
2021/04/09 12:20:01;;;;;;;3.85;1.83;;;17.00;1.00;;;;;;4994337;28;20026;-71
2021/04/09 12:22:27;;;;;;;1.52;1.42;;;16.90;1.00;;;;;;5021386;28;20176;-73
2021/04/09 12:24:52;;;;;;;2.15;1.73;;;16.90;1.00;;;;;;5022219;28;20026;-73
2021/04/09 12:27:19;;;;;;;2.78;1.50;;;16.90;1.00;;;;;;5025394;28;20029;-72
2021/04/09 12:29:46;;;;;;;5.40;2.15;;;17.10;1.00;;;;;;5025387;28;20021;-74
2021/04/09 12:32:12;;;;;;;1.83;1.40;;;17.10;1.00;;;;;;5024921;28;20037;-75
2021/04/09 12:34:37;;;;;;;2.70;1.55;;;16.90;1.00;;;;;;5014416;28;20030;-73
2021/04/09 12:37:03;;;;;;;2.15;1.48;;;16.70;1.00;;;;;;5021937;28;20014;-75
2021/04/09 12:39:29;;;;;;;3.15;1.88;;;16.80;1.00;;;;;;5030625;28;20034;-72
2021/04/09 12:41:55;;;;;;;2.83;1.40;;;16.80;1.00;;;;;;5034594;28;20014;-72
2021/04/09 12:44:21;;;;;;;4.60;2.08;;;17.10;1.00;;;;;;5036377;28;20042;-74
2021/04/09 12:46:48;;;;;;;2.33;1.73;;;17.00;1.00;;;;;;5028568;28;20018;-71
2021/04/09 12:49:16;;;;;;;2.30;1.35;;;17.30;1.00;;;;;;5023494;28;20030;-72
2021/04/09 12:51:41;;;;;;;3.20;2.22;;;17.50;1.00;;;;;;5036138;28;20029;-72
2021/04/09 12:54:07;;;;;;;2.92;1.80;;;17.30;1.00;;;;;;5035293;28;20057;-74
2021/04/09 12:56:33;;;;;;;5.22;2.72;;;17.50;1.00;;;;;;5019027;28;20443;-71
2021/04/09 12:58:58;;;;;;;3.33;1.23;;;17.70;1.00;;;;;;5024890;28;20030;-73